Time;durP1;ratioP1;P1;durP2;ratioP2;P2;SDS_P1;SDS_P2;PMS_P1;PMS_P2;Temp;Humidity;BMP_temperature;BMP_pressure;BME280_temperature;BME280_humidity;BME280_pressure;Samples;Min_cycle;Max_cycle;Signal;HPM_P1;HPM_P2
2020/12/23 00:01:21;;;;;;;21.02;13.18;;;;;;;-0.65;69.49;100010.02;1780310;80;21129;-35
2020/12/23 00:03:49;;;;;;;21.90;13.35;;;;;;;-0.63;69.56;100009.23;1780190;80;21091;-36
2020/12/23 00:06:17;;;;;;;20.00;11.53;;;;;;;-0.63;69.68;99998.02;1780174;80;21351;-35
2020/12/23 00:08:47;;;;;;;;;;;;;;;-0.63;69.48;99990.03;1782831;80;21023;-35
2020/12/23 00:11:16;;;;;;;19.45;11.88;;;;;;;-0.55;69.43;99993.49;1780218;80;20195;-35
2020/12/23 00:13:45;;;;;;;18.15;11.93;;;;;;;-0.64;69.65;99990.33;1780325;80;21369;-35
2020/12/23 00:16:13;;;;;;;18.92;11.53;;;;;;;-0.66;69.86;99983.92;1780199;80;21182;-35
2020/12/23 00:18:42;;;;;;;20.15;12.75;;;;;;;-0.61;69.70;99982.58;1780335;80;22137;-36
2020/12/23 00:21:10;;;;;;;20.10;11.55;;;;;;;-0.59;69.70;99975.14;1780130;80;21078;-35
2020/12/23 00:23:38;;;;;;;22.58;13.55;;;;;;;-0.55;69.54;99982.05;1780144;80;21110;-35
2020/12/23 00:26:13;;;;;;;19.32;12.40;;;;;;;-0.57;69.67;99977.51;1780271;80;21150;-35
2020/12/23 00:28:42;;;;;;;21.10;12.68;;;;;;;-0.53;69.71;99982.02;1780175;80;21123;-35
2020/12/23 00:31:16;;;;;;;16.97;11.57;;;;;;;-0.42;69.35;99972.14;1780230;80;21534;-35
2020/12/23 00:33:44;;;;;;;21.50;13.48;;;;;;;-0.39;69.22;99964.16;1780133;80;21063;-35
2020/12/23 00:36:16;;;;;;;17.65;11.65;;;;;;;-0.33;69.11;99964.38;1770930;80;21119;-35
2020/12/23 00:38:45;;;;;;;19.77;11.93;;;;;;;-0.32;68.84;99959.31;1769197;81;21139;-35
2020/12/23 00:41:13;;;;;;;16.90;11.63;;;;;;;-0.30;68.73;99955.32;1769235;80;21122;-35
2020/12/23 00:43:42;;;;;;;19.25;12.20;;;;;;;-0.26;68.73;99947.57;1769191;81;21198;-35
2020/12/23 00:46:12;;;;;;;16.12;11.53;;;;;;;-0.26;68.58;99943.05;1768925;80;21210;-35
2020/12/23 00:48:41;;;;;;;18.32;12.05;;;;;;;-0.26;68.69;99943.58;1768706;81;21602;-36
2020/12/23 00:51:13;;;;;;;18.80;11.57;;;;;;;-0.26;68.42;99930.25;1768621;81;21382;-35
2020/12/23 00:53:42;;;;;;;17.60;11.22;;;;;;;-0.30;68.52;99925.22;1768609;81;21641;-36
2020/12/23 00:56:11;;;;;;;17.87;11.08;;;;;;;-0.31;68.55;99920.42;1768684;81;21369;-35
2020/12/23 00:58:39;;;;;;;17.92;11.68;;;;;;;-0.34;68.67;99923.64;1768709;80;21834;-35
2020/12/23 01:01:07;;;;;;;15.32;10.85;;;;;;;-0.32;68.63;99923.34;1768708;81;21134;-35
2020/12/23 01:03:37;;;;;;;;;;;;;;;-0.31;68.37;99919.62;1769634;81;21183;-36
2020/12/23 01:06:10;;;;;;;14.75;9.30;;;;;;;-0.35;68.47;99913.25;1768633;81;20231;-36
2020/12/23 01:08:40;;;;;;;17.32;11.05;;;;;;;-0.47;68.74;99906.90;1768749;81;22144;-36
2020/12/23 01:11:10;;;;;;;11.10;7.13;;;;;;;-0.51;69.03;99901.33;1770531;81;21025;-35
2020/12/23 01:13:38;;;;;;;15.80;10.45;;;;;;;-0.49;69.08;99901.87;1768715;81;21127;-36
2020/12/23 01:16:07;;;;;;;15.80;10.78;;;;;;;-0.50;69.17;99893.61;1768644;81;21571;-35
2020/12/23 01:18:35;;;;;;;15.05;10.35;;;;;;;-0.46;69.03;99896.52;1768693;81;21127;-35
2020/12/23 01:21:04;;;;;;;17.00;10.30;;;;;;;-0.50;69.14;99888.81;1768624;80;21369;-35
2020/12/23 01:23:32;;;;;;;17.20;10.82;;;;;;;-0.48;69.06;99880.80;1745192;81;21150;-35
2020/12/23 01:26:00;;;;;;;18.37;11.65;;;;;;;-0.46;69.21;99881.34;1768631;81;21127;-35
2020/12/23 01:28:29;;;;;;;16.93;11.53;;;;;;;-0.37;69.14;99872.76;1768581;81;21175;-35
2020/12/23 01:30:57;;;;;;;17.95;11.70;;;;;;;-0.33;69.07;99871.13;1768663;81;21136;-35
2020/12/23 01:33:26;;;;;;;17.37;11.75;;;;;;;-0.29;68.94;99866.88;1768687;81;21207;-36
2020/12/23 01:35:54;;;;;;;17.07;10.98;;;;;;;-0.30;68.82;99866.08;1768330;80;21064;-35
2020/12/23 01:38:22;;;;;;;18.42;12.70;;;;;;;-0.31;68.82;99864.47;1768658;81;21151;-35
2020/12/23 01:40:58;;;;;;;18.48;12.07;;;;;;;-0.34;68.89;99851.72;1768552;81;21144;-35
2020/12/23 01:43:27;;;;;;;19.52;12.35;;;;;;;-0.29;68.97;99852.22;1768658;80;21139;-35
2020/12/23 01:45:55;;;;;;;22.35;14.53;;;;;;;-0.24;68.83;99840.20;1762288;80;21414;-35
2020/12/23 01:48:31;;;;;;;23.73;14.50;;;;;;;-0.19;68.92;99842.80;1753468;81;21076;-35
2020/12/23 01:51:01;;;;;;;22.25;13.98;;;;;;;-0.16;68.74;99839.61;1753352;81;21151;-35
2020/12/23 01:53:29;;;;;;;;;;;;;;;-0.18;68.74;99843.07;1740742;82;21413;-35
2020/12/23 01:56:00;;;;;;;21.42;13.18;;;;;;;-0.21;68.75;99842.30;1738049;82;20364;-35
2020/12/23 01:58:29;;;;;;;20.15;13.05;;;;;;;-0.67;69.06;99781.31;1708685;84;23583;-35
2020/12/23 02:00:58;;;;;;;17.07;12.68;;;;;;;-0.30;68.94;99846.63;1737968;81;21161;-35
2020/12/23 02:03:26;;;;;;;21.70;13.13;;;;;;;-0.38;69.18;99839.20;1738049;82;21157;-35
2020/12/23 02:05:56;;;;;;;18.42;12.75;;;;;;;-0.34;69.20;99841.59;1737966;82;21034;-35
2020/12/23 02:08:24;;;;;;;18.82;12.37;;;;;;;-0.34;69.03;99846.92;1725858;82;21161;-36
2020/12/23 02:10:52;;;;;;;20.05;12.95;;;;;;;-0.35;69.18;99843.98;1738027;82;23513;-35
2020/12/23 02:13:40;;;;;;;15.90;10.90;;;;;;;-0.33;69.18;99837.30;1737996;82;21635;-35
2020/12/23 02:16:09;;;;;;;16.50;10.85;;;;;;;-0.37;69.11;99826.94;1738083;82;21131;-35
2020/12/23 02:18:37;;;;;;;16.32;11.00;;;;;;;-0.36;69.11;99825.87;1737976;82;21158;-35
2020/12/23 02:21:07;;;;;;;16.02;10.80;;;;;;;-0.38;69.11;99819.22;1736821;82;21155;-38
2020/12/23 02:23:36;;;;;;;17.87;11.53;;;;;;;-0.38;69.08;99816.55;1738101;82;21274;-35
2020/12/23 02:26:06;;;;;;;14.73;10.30;;;;;;;-0.38;69.24;99814.69;1732795;82;21195;-35
2020/12/23 02:28:34;;;;;;;15.08;10.53;;;;;;;-0.35;69.05;99814.69;1738068;82;21119;-35
2020/12/23 02:31:04;;;;;;;16.37;10.82;;;;;;;-0.35;69.21;99814.69;1738053;82;21175;-35
2020/12/23 02:33:32;;;;;;;15.93;10.70;;;;;;;-0.32;69.05;99808.27;1738288;82;21156;-35
2020/12/23 02:36:00;;;;;;;18.02;11.70;;;;;;;-0.29;69.03;99802.94;1746577;81;21479;-35
2020/12/23 02:38:29;;;;;;;13.32;9.35;;;;;;;-0.30;68.95;99810.66;1756927;81;20981;-35
2020/12/23 02:40:57;;;;;;;16.62;10.82;;;;;;;-0.27;69.01;99803.44;1756890;81;21134;-35
2020/12/23 02:43:25;;;;;;;15.75;10.15;;;;;;;-0.27;68.93;99797.58;1756863;81;21142;-35
2020/12/23 02:45:54;;;;;;;16.55;10.15;;;;;;;-0.23;68.95;99799.14;1756933;81;21135;-35
2020/12/23 02:48:23;;;;;;;15.23;9.75;;;;;;;-0.21;68.80;99789.02;1751643;81;21272;-35
2020/12/23 02:50:52;;;;;;;16.45;11.25;;;;;;;-0.20;68.81;99787.95;1756992;81;21099;-35
2020/12/23 02:53:20;;;;;;;15.60;10.40;;;;;;;-0.22;68.80;99792.75;1756915;81;21140;-35
2020/12/23 02:55:49;;;;;;;15.53;9.93;;;;;;;-0.24;69.01;99786.35;1756857;81;21074;-36
2020/12/23 02:58:17;;;;;;;16.62;10.00;;;;;;;-0.20;68.96;99787.95;1756973;81;21135;-35
2020/12/23 03:00:46;;;;;;;15.70;10.90;;;;;;;-0.58;69.03;99729.06;1756856;81;21197;-35
2020/12/23 03:05:37;;;;;;;15.60;10.18;;;;;;;-0.18;69.07;99777.25;1831710;78;23498;-35
2020/12/23 03:08:06;;;;;;;16.12;9.45;;;;;;;-0.26;69.23;99777.06;1735340;82;21013;-35
2020/12/23 03:10:34;;;;;;;15.95;10.15;;;;;;;-0.23;69.23;99771.16;1733776;82;21296;-35
2020/12/23 03:13:02;;;;;;;14.13;10.03;;;;;;;-0.19;69.11;99770.86;1735254;82;21017;-35
2020/12/23 03:15:31;;;;;;;15.28;10.18;;;;;;;-0.19;69.05;99766.34;1739341;82;20999;-35
2020/12/23 03:17:59;;;;;;;14.95;9.98;;;;;;;-0.21;69.02;99763.17;1739499;82;21070;-35
2020/12/23 03:20:27;;;;;;;16.65;10.70;;;;;;;-0.24;69.16;99766.94;1713896;83;20972;-35
2020/12/23 03:22:56;;;;;;;16.00;9.93;;;;;;;-0.23;69.22;99759.18;1713759;83;21369;-35
2020/12/23 03:25:27;;;;;;;18.80;9.95;;;;;;;-0.29;69.45;99761.08;1739505;82;21015;-35
2020/12/23 03:27:56;;;;;;;16.20;9.90;;;;;;;-0.25;69.45;99766.67;1719785;83;21080;-35
2020/12/23 03:30:24;;;;;;;15.55;9.13;;;;;;;-0.24;69.39;99762.38;1719626;83;21146;-35
2020/12/23 03:32:53;;;;;;;16.15;10.82;;;;;;;-0.21;69.41;99754.38;1719801;82;21122;-35
2020/12/23 03:35:21;;;;;;;17.85;10.10;;;;;;;-0.19;69.26;99753.55;1719843;83;21207;-35
2020/12/23 03:37:49;;;;;;;16.32;10.15;;;;;;;-0.19;69.38;99754.88;1719537;83;21162;-35
2020/12/23 03:40:18;;;;;;;17.15;10.58;;;;;;;-0.18;69.29;99753.81;1719779;83;21061;-35
2020/12/23 03:42:46;;;;;;;15.98;10.48;;;;;;;-0.23;69.38;99759.18;1719687;83;21187;-35
2020/12/23 03:45:14;;;;;;;17.10;10.70;;;;;;;-0.25;69.60;99753.34;1719757;83;21143;-35
2020/12/23 03:47:43;;;;;;;17.98;10.78;;;;;;;-0.30;69.86;99746.73;1719725;83;21433;-35
2020/12/23 03:50:11;;;;;;;16.42;10.63;;;;;;;-0.27;69.90;99754.16;1719641;83;21414;-35
2020/12/23 03:52:40;;;;;;;15.08;10.15;;;;;;;-0.29;69.87;99751.76;1719760;83;21178;-35
2020/12/23 03:55:09;;;;;;;17.27;11.40;;;;;;;-0.30;69.88;99745.39;1719710;83;21107;-35
2020/12/23 03:57:37;;;;;;;15.15;9.63;;;;;;;-0.27;69.91;99746.16;1719838;83;21617;-35
2020/12/23 04:00:10;;;;;;;18.35;11.10;;;;;;;-0.29;69.98;99746.42;1719725;83;21369;-35
2020/12/23 04:02:42;;;;;;;16.20;10.63;;;;;;;-0.25;69.91;99740.03;1719713;83;21044;-35
2020/12/23 04:05:10;;;;;;;16.57;11.15;;;;;;;-0.24;69.99;99734.97;1715221;83;21174;-35
2020/12/23 04:07:38;;;;;;;18.42;11.40;;;;;;;-0.25;70.01;99739.50;1713316;82;21194;-35
2020/12/23 04:10:07;;;;;;;19.10;11.55;;;;;;;-0.26;70.14;99731.77;1713507;82;21126;-35
2020/12/23 04:12:36;;;;;;;18.13;10.77;;;;;;;-0.21;70.09;99730.40;1713567;83;21444;-36
2020/12/23 04:15:10;;;;;;;16.62;11.03;;;;;;;-0.21;69.97;99739.72;1713103;82;21205;-35
2020/12/23 04:17:38;;;;;;;19.67;12.07;;;;;;;-0.25;70.05;99734.70;1712947;83;21590;-35
2020/12/23 04:20:08;;;;;;;18.27;11.50;;;;;;;-0.30;70.31;99740.06;1712734;83;21149;-35
2020/12/23 04:22:36;;;;;;;19.30;10.78;;;;;;;-0.33;70.39;99729.41;1713059;83;21601;-36
2020/12/23 04:25:06;;;;;;;20.30;12.03;;;;;;;-0.32;70.43;99734.21;1712668;83;21434;-35
2020/12/23 04:27:35;;;;;;;24.92;13.20;;;;;;;-0.33;70.50;99729.95;1712767;83;21114;-35
2020/12/23 04:30:05;;;;;;;22.55;13.08;;;;;;;-0.32;70.57;99730.21;1712791;83;21067;-35
2020/12/23 04:32:34;;;;;;;20.90;12.68;;;;;;;-0.29;70.55;99733.67;1712795;83;21154;-35
2020/12/23 04:35:03;;;;;;;21.97;12.90;;;;;;;-0.33;70.77;99728.08;1712806;83;21164;-35
2020/12/23 04:37:33;;;;;;;21.90;13.68;;;;;;;-0.30;70.67;99729.41;1712806;83;22620;-35
2020/12/23 04:40:03;;;;;;;18.67;11.87;;;;;;;-0.33;70.86;99720.63;1712868;83;21043;-35
2020/12/23 04:42:33;;;;;;;22.25;13.35;;;;;;;-0.35;70.94;99731.58;1712862;82;21403;-36
2020/12/23 04:45:05;;;;;;;25.17;15.32;;;;;;;-0.32;70.99;99726.22;1712754;83;21185;-36
2020/12/23 04:47:33;;;;;;;24.63;14.00;;;;;;;-0.35;71.08;99726.25;1713344;82;21122;-35
2020/12/23 04:50:01;;;;;;;22.37;13.95;;;;;;;-0.34;71.13;99714.53;1720999;83;21422;-35
2020/12/23 04:52:33;;;;;;;24.05;14.10;;;;;;;-0.33;71.19;99717.96;1732017;82;21055;-35
2020/12/23 04:55:04;;;;;;;23.75;14.50;;;;;;;-0.33;71.23;99718.76;1771088;80;21059;-36
2020/12/23 04:57:35;;;;;;;24.72;14.95;;;;;;;-0.31;71.26;99726.48;1771381;81;21111;-35
2020/12/23 05:00:09;;;;;;;26.00;14.95;;;;;;;-0.33;71.36;99709.97;1771357;81;21161;-35
2020/12/23 05:02:38;;;;;;;27.00;15.00;;;;;;;-0.30;71.33;99716.09;1771356;81;21173;-35
2020/12/23 05:05:08;;;;;;;26.33;15.05;;;;;;;-0.33;71.39;99710.77;1765891;80;21147;-35
2020/12/23 05:07:37;;;;;;;26.77;15.03;;;;;;;-0.40;71.71;99712.17;1765018;81;21012;-35
2020/12/23 05:10:07;;;;;;;28.20;15.50;;;;;;;-0.39;71.74;99711.11;1765229;81;21056;-35
2020/12/23 05:12:35;;;;;;;21.68;13.55;;;;;;;-0.41;71.73;99713.24;1765126;81;21095;-35
2020/12/23 05:15:05;;;;;;;28.52;16.12;;;;;;;-0.45;71.92;99709.02;1765022;79;21259;-35
2020/12/23 05:17:34;;;;;;;27.37;16.25;;;;;;;-0.41;71.92;99708.71;1765196;81;21593;-35
2020/12/23 05:20:04;;;;;;;29.12;15.18;;;;;;;-0.39;72.05;99711.11;1765041;81;21174;-35
2020/12/23 05:22:32;;;;;;;29.52;17.15;;;;;;;-0.37;72.21;99702.28;1765127;81;26564;-35
2020/12/23 05:25:02;;;;;;;25.15;14.40;;;;;;;-0.39;72.41;99710.58;1764739;81;21139;-35
2020/12/23 05:27:33;;;;;;;27.55;15.48;;;;;;;-0.36;72.46;99702.55;1765201;81;21189;-35
2020/12/23 05:30:02;;;;;;;26.20;14.93;;;;;;;-0.38;72.72;99703.34;1764996;81;21147;-35
2020/12/23 05:32:36;;;;;;;28.35;15.83;;;;;;;-0.35;72.78;99699.62;1765073;81;21004;-35
2020/12/23 05:35:04;;;;;;;28.57;15.20;;;;;;;-0.37;72.92;99696.42;1765157;81;21633;-35
2020/12/23 05:37:33;;;;;;;28.70;16.65;;;;;;;-0.35;73.01;99692.16;1765095;80;21103;-35
2020/12/23 05:40:01;;;;;;;27.65;15.48;;;;;;;-0.32;72.96;99683.59;1765105;80;21330;-35
2020/12/23 05:42:30;;;;;;;26.40;14.93;;;;;;;-0.30;73.06;99689.45;1764977;80;21123;-35
2020/12/23 05:45:04;;;;;;;26.90;16.62;;;;;;;-0.29;73.23;99682.48;1765024;80;21052;-35
2020/12/23 05:47:33;;;;;;;27.48;15.18;;;;;;;-0.29;73.48;99685.72;1764808;81;21166;-35
2020/12/23 05:50:01;;;;;;;29.80;15.35;;;;;;;-0.31;73.62;99695.84;1739869;81;21155;-35
2020/12/23 05:52:29;;;;;;;25.25;14.93;;;;;;;-0.31;73.94;99684.66;1765018;80;21316;-35
2020/12/23 05:54:58;;;;;;;27.70;15.63;;;;;;;-0.35;73.94;99684.97;1739685;81;21181;-35
2020/12/23 05:57:27;;;;;;;28.60;15.80;;;;;;;-0.41;74.31;99690.60;1765400;81;21110;-35
2020/12/23 05:59:55;;;;;;;27.75;14.83;;;;;;;-0.45;74.57;99677.85;1764949;81;21383;-35
2020/12/23 06:02:23;;;;;;;29.60;14.83;;;;;;;-0.40;74.57;99669.02;1765060;80;21433;-35
2020/12/23 06:04:52;;;;;;;25.37;15.35;;;;;;;-0.39;74.59;99679.14;1764948;80;21279;-35
2020/12/23 06:07:20;;;;;;;27.48;15.15;;;;;;;-0.37;74.35;99663.13;1731461;81;21028;-35
2020/12/23 06:09:50;;;;;;;30.82;15.18;;;;;;;-0.35;74.27;99650.87;1765055;81;21008;-36
2020/12/23 06:12:21;;;;;;;27.17;14.75;;;;;;;-0.36;74.23;99651.41;1764962;81;20977;-35
2020/12/23 06:14:57;;;;;;;29.12;15.65;;;;;;;-0.37;74.15;99660.47;1765253;79;21594;-36
2020/12/23 06:17:26;;;;;;;25.68;14.83;;;;;;;-0.33;74.15;99658.03;1765073;81;21190;-35
2020/12/23 06:19:57;;;;;;;23.73;14.58;;;;;;;-0.28;74.00;99649.98;1765099;80;21592;-36
2020/12/23 06:22:27;;;;;;;28.95;15.98;;;;;;;-0.23;73.95;99644.61;1765152;81;21048;-35
2020/12/23 06:25:00;;;;;;;28.00;15.28;;;;;;;-0.19;73.81;99650.43;1765119;81;21147;-36
2020/12/23 06:27:26;;;;;;;28.73;14.50;;;;;;;-0.16;73.61;99645.89;1765087;81;20992;-35
2020/12/23 06:29:55;;;;;;;23.77;14.25;;;;;;;-0.16;73.53;99660.55;1744001;81;21318;-35
2020/12/23 06:32:24;;;;;;;24.07;13.03;;;;;;;-0.19;73.59;99651.77;1764993;80;21159;-35
2020/12/23 06:34:58;;;;;;;24.95;14.45;;;;;;;-0.17;73.74;99668.27;1765207;81;21012;-35
2020/12/23 06:37:32;;;;;;;22.77;12.68;;;;;;;-0.15;73.64;99654.15;1765018;81;21008;-35
2020/12/23 06:40:09;;;;;;;22.85;13.15;;;;;;;-0.15;73.79;99649.35;1765042;80;21179;-35
2020/12/23 06:42:48;;;;;;;27.00;14.20;;;;;;;-0.17;74.18;99636.30;1765147;80;22153;-35
2020/12/23 06:45:17;;;;;;;25.65;14.63;;;;;;;-0.16;74.31;99638.44;1764990;80;21024;-35
2020/12/23 06:47:46;;;;;;;25.70;15.65;;;;;;;-0.12;74.06;99657.57;1764985;80;21127;-35
2020/12/23 06:50:30;;;;;;;24.82;15.38;;;;;;;-0.11;73.71;99657.83;1765221;80;21625;-36
2020/12/23 06:52:58;;;;;;;29.25;15.28;;;;;;;-0.13;73.65;99659.17;1764993;81;21573;-35
2020/12/23 06:55:43;;;;;;;28.07;14.95;;;;;;;-0.15;73.94;99678.66;1765029;81;21362;-35
2020/12/23 06:58:39;;;;;;;23.87;13.48;;;;;;;-0.13;74.28;99665.84;1809360;78;22808;-36
2020/12/23 07:01:19;;;;;;;24.23;14.90;;;;;;;-0.16;74.45;99679.73;1774008;80;20968;-35
2020/12/23 07:03:48;;;;;;;27.40;15.48;;;;;;;-0.12;74.44;99683.42;1784111;80;21412;-35
2020/12/23 07:06:33;;;;;;;25.20;14.85;;;;;;;-0.12;74.36;99683.42;1749183;82;20964;-35
2020/12/23 07:09:04;;;;;;;26.55;16.40;;;;;;;-0.12;74.40;99680.75;1749214;82;21016;-35
2020/12/23 07:11:34;;;;;;;26.12;15.35;;;;;;;-0.18;74.66;99688.00;1744162;82;21033;-36
2020/12/23 07:14:05;;;;;;;27.75;15.40;;;;;;;-0.18;74.73;99673.87;1717625;82;21653;-36
2020/12/23 07:16:42;;;;;;;26.23;14.73;;;;;;;-0.21;74.77;99674.45;1780237;80;21660;-35
2020/12/23 07:19:13;;;;;;;25.10;14.83;;;;;;;-0.20;74.69;99670.72;1780210;80;21059;-35
2020/12/23 07:21:42;;;;;;;27.02;15.05;;;;;;;-0.21;74.91;99669.92;1780140;79;21016;-35
2020/12/23 07:24:10;;;;;;;24.98;14.10;;;;;;;-0.17;74.75;99664.81;1694491;82;21201;-35
2020/12/23 07:26:40;;;;;;;27.58;15.18;;;;;;;-0.10;74.54;99655.97;1747949;80;21146;-35
2020/12/23 07:29:09;;;;;;;24.07;13.43;;;;;;;-0.07;74.44;99651.39;1780200;80;21195;-35
2020/12/23 07:31:40;;;;;;;31.87;14.73;;;;;;;-0.04;74.60;99644.16;1780119;80;21190;-35
2020/12/23 07:34:09;;;;;;;26.55;14.55;;;;;;;-0.01;74.54;99648.94;1780244;80;21146;-36
2020/12/23 07:36:37;;;;;;;25.10;15.45;;;;;;;-0.03;74.63;99649.75;1693383;82;21150;-35
2020/12/23 07:39:06;;;;;;;27.75;15.28;;;;;;;-0.05;74.70;99639.36;1780117;80;21158;-35
2020/12/23 07:41:35;;;;;;;25.08;14.38;;;;;;;-0.03;74.86;99625.77;1780213;80;21198;-35
2020/12/23 07:44:08;;;;;;;27.00;16.10;;;;;;;-0.01;74.84;99636.95;1780087;80;21182;-35
2020/12/23 07:46:36;;;;;;;25.48;14.90;;;;;;;0.02;74.73;99616.92;1748760;80;21629;-35
2020/12/23 07:49:05;;;;;;;26.20;16.07;;;;;;;0.04;74.74;99616.11;1785913;80;21133;-35
2020/12/23 07:51:38;;;;;;;27.35;14.95;;;;;;;0.04;74.89;99619.57;1780265;80;21585;-36
2020/12/23 07:54:11;;;;;;;26.25;14.33;;;;;;;0.10;74.71;99622.41;1780233;80;21201;-36
2020/12/23 07:56:40;;;;;;;25.92;15.15;;;;;;;0.06;74.80;99624.06;1777786;80;21166;-35
2020/12/23 07:59:10;;;;;;;25.52;14.70;;;;;;;0.07;74.65;99620.33;1736133;82;21036;-35
2020/12/23 08:01:41;;;;;;;27.65;14.85;;;;;;;0.11;74.50;99633.87;1737059;82;21119;-35
2020/12/23 08:04:10;;;;;;;26.95;15.85;;;;;;;0.11;74.52;99626.67;1769336;81;21132;-35
2020/12/23 08:06:39;;;;;;;30.70;16.42;;;;;;;0.15;74.34;99629.55;1738738;82;22274;-35
2020/12/23 08:09:10;;;;;;;27.93;16.32;;;;;;;0.14;74.25;99623.45;1768695;81;21146;-35
2020/12/23 08:11:39;;;;;;;27.90;16.37;;;;;;;0.14;74.37;99624.79;1738167;82;21151;-35
2020/12/23 08:14:07;;;;;;;28.45;16.82;;;;;;;0.16;74.39;99628.48;1757662;81;21089;-35
2020/12/23 08:16:36;;;;;;;28.38;15.25;;;;;;;0.19;74.27;99621.27;1768649;81;21140;-36
2020/12/23 08:19:04;;;;;;;27.50;15.58;;;;;;;0.21;74.37;99621.22;1738154;82;21431;-35
2020/12/23 08:21:34;;;;;;;32.48;16.23;;;;;;;0.24;74.43;99616.64;1738048;82;21016;-35
2020/12/23 08:24:03;;;;;;;29.23;16.27;;;;;;;0.23;74.81;99618.28;1738104;82;21042;-35
2020/12/23 08:26:31;;;;;;;25.43;15.13;;;;;;;0.25;75.40;99607.58;1768710;81;21171;-35
2020/12/23 08:28:59;;;;;;;30.00;16.07;;;;;;;0.27;75.76;99609.42;1769120;80;21661;-35
2020/12/23 08:31:31;;;;;;;26.73;15.60;;;;;;;0.28;75.57;99602.23;1769185;81;22371;-35
2020/12/23 08:34:01;;;;;;;34.25;17.25;;;;;;;0.28;75.83;99598.23;1769131;81;21331;-35
2020/12/23 08:36:31;;;;;;;27.98;16.30;;;;;;;0.27;75.92;99604.09;1769124;81;21211;-35
2020/12/23 08:39:01;;;;;;;20.40;12.55;;;;;;;0.24;75.98;99597.98;1769409;81;21116;-35
2020/12/23 08:41:30;;;;;;;27.75;16.70;;;;;;;0.27;76.13;99598.77;1769184;81;21135;-35
2020/12/23 08:43:59;;;;;;;31.12;17.05;;;;;;;0.35;75.94;99598.66;1769307;81;22270;-36
2020/12/23 08:46:28;;;;;;;30.37;17.27;;;;;;;0.34;75.74;99593.86;1769135;81;21153;-35
2020/12/23 08:48:57;;;;;;;27.48;15.80;;;;;;;0.37;75.55;99590.64;1747662;81;21155;-35
2020/12/23 08:51:25;;;;;;;24.63;14.90;;;;;;;0.34;75.58;99588.52;1695661;81;21135;-35
2020/12/23 08:53:54;;;;;;;28.90;17.57;;;;;;;0.36;75.73;99589.05;1769250;81;21162;-35
2020/12/23 08:56:33;;;;;;;27.73;16.80;;;;;;;0.33;75.96;99582.96;1769096;80;21452;-36
2020/12/23 08:59:06;;;;;;;27.30;14.95;;;;;;;0.31;76.04;99579.77;1769063;81;21071;-36
2020/12/23 09:01:37;;;;;;;25.30;15.72;;;;;;;0.38;76.01;99578.10;1769236;81;21461;-37
2020/12/23 09:04:11;;;;;;;29.05;16.20;;;;;;;0.44;75.64;99577.73;1769151;81;21004;-36
2020/12/23 09:06:41;;;;;;;27.32;16.80;;;;;;;0.48;75.75;99572.63;1769208;81;21005;-37
2020/12/23 09:09:21;;;;;;;28.70;15.95;;;;;;;0.49;75.60;99578.20;1769476;81;21209;-36
2020/12/23 09:11:54;;;;;;;22.98;14.98;;;;;;;0.52;75.56;99574.97;1769382;81;21748;-37
2020/12/23 09:14:37;;;;;;;27.60;15.08;;;;;;;0.60;75.13;99572.19;1755283;81;21159;-37
2020/12/23 09:17:07;;;;;;;25.05;15.18;;;;;;;0.59;75.12;99569.26;1738545;82;21408;-36
2020/12/23 09:19:53;;;;;;;28.15;15.38;;;;;;;0.57;75.23;99566.91;1738666;82;21134;-37
2020/12/23 09:22:35;;;;;;;26.65;15.30;;;;;;;0.59;74.94;99562.59;1738594;82;21395;-36
2020/12/23 09:25:29;;;;;;;23.12;13.62;;;;;;;0.55;75.03;99569.59;1738644;82;21695;-37
2020/12/23 09:28:15;;;;;;;26.35;14.33;;;;;;;0.58;74.97;99557.03;1754126;80;21134;-36
2020/12/23 09:30:49;;;;;;;22.40;14.75;;;;;;;0.61;75.09;99550.56;1742194;82;21602;-36
2020/12/23 09:33:21;;;;;;;27.75;16.05;;;;;;;0.65;75.19;99548.11;1742134;82;21088;-36
2020/12/23 09:35:51;;;;;;;23.05;13.98;;;;;;;0.64;75.13;99540.64;1742164;82;22275;-37
2020/12/23 09:38:24;;;;;;;24.35;15.05;;;;;;;0.68;75.00;99544.31;1742043;82;21169;-37
2020/12/23 09:40:55;;;;;;;25.23;15.75;;;;;;;0.70;74.93;99542.70;1742102;81;21578;-36
2020/12/23 09:43:26;;;;;;;26.82;15.93;;;;;;;0.66;75.05;99539.03;1742181;82;21155;-37
2020/12/23 09:45:56;;;;;;;23.42;13.85;;;;;;;0.64;75.14;99531.84;1741992;82;21159;-36
2020/12/23 09:48:25;;;;;;;25.90;15.32;;;;;;;0.65;75.17;99529.43;1742192;82;21187;-37
2020/12/23 09:50:54;;;;;;;22.15;14.63;;;;;;;0.67;75.24;99529.95;1742129;82;27098;-37
2020/12/23 09:53:23;;;;;;;25.17;15.85;;;;;;;0.68;75.14;99528.84;1741984;82;20977;-36
2020/12/23 09:55:53;;;;;;;23.83;15.08;;;;;;;0.67;75.18;99520.07;1741982;82;21617;-37
2020/12/23 09:58:23;;;;;;;22.35;14.53;;;;;;;0.70;75.28;99522.14;1741885;82;21144;-37
2020/12/23 10:00:52;;;;;;;27.85;15.90;;;;;;;0.75;75.15;99521.27;1742113;82;21216;-37
2020/12/23 10:03:20;;;;;;;27.75;16.55;;;;;;;0.75;75.48;99511.94;1742055;82;21199;-36
2020/12/23 10:05:49;;;;;;;25.40;15.85;;;;;;;0.73;75.50;99510.88;1742018;82;20942;-37
2020/12/23 10:08:19;;;;;;;25.02;15.30;;;;;;;0.75;75.17;99513.27;1741938;82;21156;-37
2020/12/23 10:10:47;;;;;;;24.95;16.20;;;;;;;0.78;74.95;99512.14;1742204;82;21191;-37
2020/12/23 10:13:16;;;;;;;24.40;15.70;;;;;;;0.79;74.83;99512.94;1741992;81;21313;-37
2020/12/23 10:15:45;;;;;;;25.68;15.15;;;;;;;0.75;74.99;99513.27;1743574;82;21192;-36
2020/12/23 10:18:13;;;;;;;23.90;14.80;;;;;;;0.72;75.03;99499.19;1743599;81;21203;-36
2020/12/23 10:20:45;;;;;;;23.38;14.60;;;;;;;0.77;74.98;99495.91;1743579;82;21159;-36
2020/12/23 10:23:16;;;;;;;25.02;15.60;;;;;;;0.83;74.89;99497.37;1743484;82;21158;-36
2020/12/23 10:25:44;;;;;;;;;;;;;;;0.81;74.87;99488.09;1746162;82;21421;-36
2020/12/23 10:28:12;;;;;;;22.95;14.30;;;;;;;0.82;75.04;99491.02;1743667;82;20642;-36
2020/12/23 10:30:41;;;;;;;23.10;14.85;;;;;;;0.80;75.18;99481.97;1743532;82;21072;-36
2020/12/23 10:33:11;;;;;;;23.90;16.25;;;;;;;0.86;74.91;99473.34;1743741;82;21610;-37
2020/12/23 10:35:40;;;;;;;22.95;15.55;;;;;;;0.84;75.00;99474.16;1743664;82;21155;-36
2020/12/23 10:38:09;;;;;;;25.08;15.72;;;;;;;0.86;74.91;99466.66;1743538;81;21156;-36
2020/12/23 10:40:37;;;;;;;23.32;15.05;;;;;;;0.86;74.95;99469.33;1743529;82;21159;-36
2020/12/23 10:43:07;;;;;;;;;;;;;;;0.91;74.92;99467.91;1746084;82;21454;-37
2020/12/23 10:45:35;;;;;;;23.50;15.85;;;;;;;0.95;74.88;99470.24;1743591;82;20235;-36
2020/12/23 10:48:04;;;;;;;22.90;15.00;;;;;;;0.84;75.04;99456.81;1743505;82;21165;-36
2020/12/23 10:50:33;;;;;;;20.08;13.25;;;;;;;0.85;75.26;99457.86;1743653;82;21397;-36
2020/12/23 10:53:01;;;;;;;19.90;13.55;;;;;;;0.93;75.01;99458.26;1743469;82;21155;-36
2020/12/23 10:55:30;;;;;;;22.42;15.75;;;;;;;1.00;74.75;99457.34;1743660;82;21158;-37
2020/12/23 10:58:01;;;;;;;23.92;15.85;;;;;;;0.97;74.93;99455.28;1743425;82;21198;-37
2020/12/23 11:00:30;;;;;;;23.32;14.65;;;;;;;0.90;75.25;99454.31;1749114;81;21148;-36
2020/12/23 11:02:58;;;;;;;21.35;14.70;;;;;;;0.96;75.50;99459.82;1769048;81;21195;-36
2020/12/23 11:05:30;;;;;;;21.37;14.13;;;;;;;1.02;75.17;99447.16;1769047;80;21025;-36
2020/12/23 11:08:00;;;;;;;22.77;14.60;;;;;;;1.06;75.12;99454.31;1769127;80;21155;-36
2020/12/23 11:10:28;;;;;;;24.02;15.65;;;;;;;1.07;74.86;99453.20;1769116;80;21183;-37
2020/12/23 11:12:57;;;;;;;19.95;13.13;;;;;;;1.05;74.98;99447.38;1764247;81;21107;-37
2020/12/23 11:15:25;;;;;;;20.77;14.30;;;;;;;1.13;74.91;99448.02;1740339;81;21256;-36
2020/12/23 11:17:54;;;;;;;22.70;14.13;;;;;;;1.19;74.63;99446.84;1736790;82;21198;-37
2020/12/23 11:20:23;;;;;;;23.93;15.10;;;;;;;1.15;74.71;99449.87;1737307;82;21547;-37
2020/12/23 11:22:51;;;;;;;20.77;14.55;;;;;;;1.11;74.89;99444.08;1736881;82;21167;-37
2020/12/23 11:25:21;;;;;;;;;;;;;;;1.09;74.96;99445.70;1739587;82;21056;-37
2020/12/23 11:27:49;;;;;;;21.23;14.10;;;;;;;1.11;75.01;99450.21;1737016;82;21161;-37
2020/12/23 11:30:17;;;;;;;19.52;13.85;;;;;;;1.09;75.13;99447.03;1736953;82;21174;-37
2020/12/23 11:32:47;;;;;;;22.48;14.23;;;;;;;1.09;75.08;99441.69;1737046;82;21151;-37
2020/12/23 11:35:15;;;;;;;22.98;13.90;;;;;;;1.12;74.98;99441.09;1736890;82;21171;-37
2020/12/23 11:37:43;;;;;;;19.67;12.63;;;;;;;1.07;74.91;99443.85;1736967;82;21403;-37